createdAt,value
2023-05-08T00:01:25.466Z,102530.84
2023-05-08T00:03:52.895Z,102535.63
2023-05-08T00:06:19.670Z,102533.16
2023-05-08T00:08:46.318Z,102537.63
2023-05-08T00:11:13.026Z,102536.34
2023-05-08T00:13:41.339Z,102533.72
2023-05-08T00:16:12.900Z,102527.25
2023-05-08T00:18:40.180Z,102523.63
2023-05-08T00:21:06.867Z,102534.06
2023-05-08T00:23:34.154Z,102535.13
2023-05-08T00:26:00.910Z,102536.63
2023-05-08T00:28:27.643Z,102542.09
2023-05-08T00:30:54.365Z,102538.38
2023-05-08T00:33:21.083Z,102539.78
2023-05-08T00:35:48.015Z,102540.09
2023-05-08T00:38:14.644Z,102545.06
2023-05-08T00:40:41.643Z,102542.66
2023-05-08T00:43:08.192Z,102544.16
2023-05-08T00:45:38.020Z,102533.53
2023-05-08T00:48:05.126Z,102546.84
2023-05-08T00:50:32.731Z,102535.66
2023-05-08T00:53:02.865Z,102549.78
2023-05-08T00:55:30.239Z,102557.34
2023-05-08T00:57:58.087Z,102553.72
2023-05-08T01:00:25.062Z,102568.31
2023-05-08T01:02:52.077Z,102562.84
2023-05-08T01:05:18.827Z,102576.59
2023-05-08T01:07:45.717Z,102568.56
2023-05-08T01:10:12.655Z,102556.63
2023-05-08T01:12:58.234Z,102568.44
2023-05-08T01:15:36.352Z,102563.59
2023-05-08T01:18:18.931Z,102564.19
2023-05-08T01:20:49.129Z,102558.31
2023-05-08T01:23:34.678Z,102566.38
2023-05-08T01:26:27.647Z,102566.72
2023-05-08T01:29:03.054Z,102537.63
2023-05-08T01:32:07.561Z,102566.50
2023-05-08T01:34:38.827Z,102557.47
2023-05-08T01:37:14.538Z,102554.44
2023-05-08T01:39:51.135Z,102567.13
2023-05-08T01:42:26.517Z,102575.66
2023-05-08T01:45:03.432Z,102572.72
2023-05-08T01:47:33.216Z,102567.59
2023-05-08T01:50:07.305Z,102579.78
2023-05-08T01:52:41.018Z,102577.72
2023-05-08T01:55:14.209Z,102576.38
2023-05-08T01:57:53.343Z,102578.56
2023-05-08T02:00:22.934Z,102573.69
2023-05-08T02:02:51.914Z,102579.03
2023-05-08T02:05:20.980Z,102580.00
2023-05-08T02:07:50.489Z,102576.56
2023-05-08T02:10:18.511Z,102571.19
2023-05-08T02:12:45.872Z,102571.03
2023-05-08T02:15:16.186Z,102573.44
2023-05-08T02:17:46.241Z,102575.75
2023-05-08T02:20:15.328Z,102576.94
2023-05-08T02:22:48.854Z,102563.19
2023-05-08T02:25:17.227Z,102559.34
2023-05-08T02:27:49.521Z,102556.53
2023-05-08T02:30:19.339Z,102564.72
2023-05-08T02:32:48.078Z,102572.56
2023-05-08T02:35:19.933Z,102567.81
2023-05-08T02:37:51.750Z,102564.78
2023-05-08T02:40:20.583Z,102564.31
2023-05-08T02:42:47.387Z,102568.19
2023-05-08T02:45:14.605Z,102567.34
2023-05-08T02:48:05.277Z,102561.59
2023-05-08T02:50:40.405Z,102575.16
2023-05-08T02:53:12.842Z,102561.44
2023-05-08T02:56:00.427Z,102566.09
2023-05-08T02:58:40.497Z,102560.38
2023-05-08T03:01:48.342Z,102561.72
2023-05-08T03:04:24.508Z,102560.00
2023-05-08T03:06:54.919Z,102557.81
2023-05-08T03:09:26.295Z,102568.47
2023-05-08T03:12:00.917Z,102565.81
2023-05-08T03:14:31.655Z,102563.84
2023-05-08T03:17:01.037Z,102555.00
2023-05-08T03:19:33.115Z,102546.63
2023-05-08T03:22:01.935Z,102547.59
2023-05-08T03:24:31.616Z,102554.69
2023-05-08T03:26:59.294Z,102558.31
2023-05-08T03:29:27.254Z,102553.66
2023-05-08T03:31:54.806Z,102549.38
2023-05-08T03:34:23.490Z,102548.50
2023-05-08T03:36:50.913Z,102545.72
2023-05-08T03:39:17.688Z,102534.13
2023-05-08T03:41:45.558Z,102547.50
2023-05-08T03:44:13.368Z,102542.84
2023-05-08T03:46:42.486Z,102552.81
2023-05-08T03:49:12.474Z,102546.31
2023-05-08T03:51:40.380Z,102542.78
2023-05-08T03:54:07.162Z,102545.59
2023-05-08T03:56:34.397Z,102548.38
2023-05-08T03:59:17.810Z,102540.78
2023-05-08T04:01:59.260Z,102538.84
2023-05-08T04:04:42.050Z,102538.84
2023-05-08T04:07:32.060Z,102537.59
2023-05-08T04:10:13.789Z,102546.53
2023-05-08T04:12:51.976Z,102540.25
2023-05-08T04:15:24.486Z,102536.91
2023-05-08T04:17:55.542Z,102531.72
2023-05-08T04:20:26.036Z,102534.06
2023-05-08T04:22:54.676Z,102537.22
2023-05-08T04:25:21.393Z,102541.53
2023-05-08T04:27:51.360Z,102542.25
2023-05-08T04:30:18.544Z,102546.31
2023-05-08T04:32:46.963Z,102546.22
2023-05-08T04:35:14.579Z,102549.28
2023-05-08T04:37:43.609Z,102549.22
2023-05-08T04:40:10.945Z,102532.97
2023-05-08T04:42:39.873Z,102543.94
2023-05-08T04:45:10.903Z,102550.47
2023-05-08T04:47:37.780Z,102556.16
2023-05-08T04:50:06.022Z,102557.47
2023-05-08T04:52:33.819Z,102551.09
2023-05-08T04:55:00.562Z,102550.13
2023-05-08T04:57:27.828Z,102563.69
2023-05-08T04:59:54.999Z,102553.59
2023-05-08T05:02:21.632Z,102563.84
2023-05-08T05:04:49.773Z,102563.97
2023-05-08T05:07:17.431Z,102574.44
2023-05-08T05:09:44.414Z,102566.47
2023-05-08T05:12:13.494Z,102569.94
2023-05-08T05:14:41.517Z,102562.34
2023-05-08T05:17:09.405Z,102557.03
2023-05-08T05:19:37.059Z,102554.22
2023-05-08T05:22:03.862Z,102554.28
2023-05-08T05:24:31.584Z,102556.31
2023-05-08T05:26:58.639Z,102558.00
2023-05-08T05:29:25.394Z,102549.34
2023-05-08T05:31:52.167Z,102560.41
2023-05-08T05:34:18.858Z,102559.47
2023-05-08T05:36:45.428Z,102565.56
2023-05-08T05:39:12.022Z,102571.88
2023-05-08T05:41:38.728Z,102576.28
2023-05-08T05:44:05.778Z,102582.31
2023-05-08T05:46:32.745Z,102577.53
2023-05-08T05:48:59.631Z,102574.66
2023-05-08T05:51:30.275Z,102580.09
2023-05-08T05:53:57.280Z,102577.16
2023-05-08T05:56:25.021Z,102574.19
2023-05-08T05:58:51.835Z,102579.94
2023-05-08T06:01:18.984Z,102581.19
2023-05-08T06:03:46.060Z,102577.16
2023-05-08T06:06:13.266Z,102571.03
2023-05-08T06:08:39.860Z,102571.41
2023-05-08T06:11:06.621Z,102564.31
2023-05-08T06:13:33.371Z,102566.56
2023-05-08T06:16:00.168Z,102565.53
2023-05-08T06:18:26.830Z,102569.91
2023-05-08T06:20:59.995Z,102565.66
2023-05-08T06:23:27.158Z,102565.06
2023-05-08T06:25:54.585Z,102553.28
2023-05-08T06:28:22.678Z,102568.41
2023-05-08T06:30:49.506Z,102554.59
2023-05-08T06:33:16.234Z,102554.09
2023-05-08T06:35:49.213Z,102552.34
2023-05-08T06:38:16.401Z,102556.22
2023-05-08T06:40:47.941Z,102536.56
2023-05-08T06:43:14.617Z,102564.19
2023-05-08T06:45:43.931Z,102548.69
2023-05-08T06:48:11.580Z,102547.75
2023-05-08T06:50:39.471Z,102553.38
2023-05-08T06:53:07.236Z,102543.63
2023-05-08T06:55:36.119Z,102543.91
2023-05-08T06:58:02.858Z,102545.13
2023-05-08T07:00:29.600Z,102537.59
2023-05-08T07:02:57.390Z,102533.53
2023-05-08T07:05:24.114Z,102526.31
2023-05-08T07:07:50.734Z,102534.41
2023-05-08T07:10:19.987Z,102509.59
2023-05-08T07:12:46.870Z,102529.97
2023-05-08T07:15:25.214Z,102525.03
2023-05-08T07:17:53.546Z,102532.13
2023-05-08T07:20:21.656Z,102539.22
2023-05-08T07:22:48.374Z,102537.69
2023-05-08T07:25:15.112Z,102532.28
2023-05-08T07:27:42.538Z,102538.41
2023-05-08T07:30:09.621Z,102535.69
2023-05-08T07:32:36.402Z,102534.06
2023-05-08T07:35:03.791Z,102545.16
2023-05-08T07:37:33.645Z,102533.94
2023-05-08T07:40:00.253Z,102535.47
2023-05-08T07:42:26.967Z,102532.31
2023-05-08T07:44:55.208Z,102535.91
2023-05-08T07:47:23.163Z,102524.59
2023-05-08T07:49:49.875Z,102530.75
2023-05-08T07:52:16.827Z,102547.59
2023-05-08T07:54:44.142Z,102542.00
2023-05-08T07:57:11.258Z,102530.91
2023-05-08T07:59:38.055Z,102533.94
2023-05-08T08:02:07.504Z,102532.44
2023-05-08T08:04:36.786Z,102533.84
2023-05-08T08:07:04.759Z,102534.81
2023-05-08T08:09:32.352Z,102539.00
2023-05-08T08:11:59.044Z,102528.78
2023-05-08T08:14:25.623Z,102529.31
2023-05-08T08:16:52.486Z,102534.13
2023-05-08T08:19:19.252Z,102523.03
2023-05-08T08:21:46.421Z,102540.84
2023-05-08T08:24:13.835Z,102548.13
2023-05-08T08:26:40.521Z,102535.34
2023-05-08T08:29:07.166Z,102537.00
2023-05-08T08:31:34.012Z,102541.34
2023-05-08T08:34:04.656Z,102539.91
2023-05-08T08:36:32.622Z,102540.50
2023-05-08T08:39:00.292Z,102530.16
2023-05-08T08:41:28.115Z,102524.09
2023-05-08T08:43:57.756Z,102532.91
2023-05-08T08:46:33.309Z,102514.63
2023-05-08T08:49:03.785Z,102525.28
2023-05-08T08:51:51.989Z,102524.56
2023-05-08T08:54:23.890Z,102520.56
2023-05-08T08:56:52.099Z,102522.22
2023-05-08T08:59:19.333Z,102525.72
2023-05-08T09:01:50.459Z,102519.41
2023-05-08T09:04:17.408Z,102516.44
2023-05-08T09:06:46.155Z,102532.88
2023-05-08T09:09:16.534Z,102526.13
2023-05-08T09:11:46.305Z,102517.91
2023-05-08T09:14:13.259Z,102509.28
2023-05-08T09:16:40.224Z,102509.28
2023-05-08T09:19:08.105Z,102514.97
2023-05-08T09:21:34.767Z,102504.66
2023-05-08T09:24:04.936Z,102503.19
2023-05-08T09:26:39.395Z,102492.00
2023-05-08T09:29:22.757Z,102500.25
2023-05-08T09:31:51.666Z,102499.59
2023-05-08T09:34:28.101Z,102484.84
2023-05-08T09:37:09.940Z,102501.91
2023-05-08T09:39:36.727Z,102483.34
2023-05-08T09:42:05.121Z,102485.63
2023-05-08T09:44:51.922Z,102491.75
2023-05-08T09:47:22.095Z,102496.63
2023-05-08T09:50:05.159Z,102501.59
2023-05-08T09:52:33.219Z,102485.94
2023-05-08T09:55:02.221Z,102498.53
2023-05-08T09:57:30.404Z,102483.13
2023-05-08T10:00:14.218Z,102483.13
2023-05-08T10:02:54.104Z,102477.69
2023-05-08T10:05:24.955Z,102495.81
2023-05-08T10:07:51.802Z,102486.69
2023-05-08T10:10:28.881Z,102486.53
2023-05-08T10:12:57.074Z,102480.22
2023-05-08T10:15:27.443Z,102470.94
2023-05-08T10:18:03.327Z,102468.50
2023-05-08T10:20:31.765Z,102469.22
2023-05-08T10:23:01.185Z,102481.13
2023-05-08T10:25:33.196Z,102479.66
2023-05-08T10:28:10.733Z,102444.34
2023-05-08T10:30:43.259Z,102467.84
2023-05-08T10:33:14.845Z,102467.47
2023-05-08T10:35:43.691Z,102473.47
2023-05-08T10:38:11.783Z,102459.84
2023-05-08T10:40:39.271Z,102469.88
2023-05-08T10:43:07.385Z,102467.78
2023-05-08T10:45:34.978Z,102448.47
2023-05-08T10:48:07.717Z,102455.84
2023-05-08T10:51:08.373Z,102456.91
2023-05-08T10:53:44.197Z,102452.31
2023-05-08T10:56:11.954Z,102449.34
2023-05-08T10:58:40.417Z,102450.13
2023-05-08T11:01:07.957Z,102450.44
2023-05-08T11:03:50.823Z,102450.44
2023-05-08T11:06:38.273Z,102446.16
2023-05-08T11:09:05.968Z,102432.44
2023-05-08T11:11:39.389Z,102444.22
2023-05-08T11:14:07.235Z,102441.13
2023-05-08T11:16:59.981Z,102436.72
2023-05-08T11:19:27.955Z,102433.91
2023-05-08T11:22:27.078Z,102442.22
2023-05-08T11:25:40.263Z,102426.19
2023-05-08T11:28:06.956Z,102426.56
2023-05-08T11:30:34.702Z,102427.50
2023-05-08T11:33:05.522Z,102421.97
2023-05-08T11:36:06.149Z,102425.13
2023-05-08T11:38:36.222Z,102419.28
2023-05-08T11:41:06.816Z,102405.25
2023-05-08T11:43:33.487Z,102411.22
2023-05-08T11:46:04.307Z,102406.81
2023-05-08T11:48:32.514Z,102408.31
2023-05-08T11:51:03.355Z,102407.56
2023-05-08T11:53:31.404Z,102412.59
2023-05-08T11:55:58.752Z,102405.81
2023-05-08T11:58:26.952Z,102402.78
2023-05-08T12:00:54.779Z,102398.91
2023-05-08T12:03:23.237Z,102395.19
2023-05-08T12:05:50.714Z,102389.25
2023-05-08T12:08:18.301Z,102400.47
2023-05-08T12:10:58.284Z,102387.50
2023-05-08T12:13:31.158Z,102397.47
2023-05-08T12:16:00.440Z,102404.13
2023-05-08T12:18:28.844Z,102404.81
2023-05-08T12:21:00.626Z,102395.91
2023-05-08T12:23:32.239Z,102402.59
2023-05-08T12:26:00.563Z,102409.38
2023-05-08T12:28:28.825Z,102402.41
2023-05-08T12:30:56.206Z,102396.00
2023-05-08T12:33:23.523Z,102395.22
2023-05-08T12:35:52.242Z,102396.25
2023-05-08T12:38:18.892Z,102393.25
2023-05-08T12:40:53.087Z,102396.09
2023-05-08T12:43:19.780Z,102398.09
2023-05-08T12:45:51.933Z,102391.09
2023-05-08T12:48:19.334Z,102380.91
2023-05-08T12:50:46.379Z,102384.91
2023-05-08T12:53:15.254Z,102390.66
2023-05-08T12:55:54.054Z,102371.22
2023-05-08T12:58:25.271Z,102375.44
2023-05-08T13:00:54.731Z,102374.81
2023-05-08T13:03:26.537Z,102368.97
2023-05-08T13:05:55.580Z,102371.25
2023-05-08T13:08:30.938Z,102372.69
2023-05-08T13:10:57.628Z,102360.75
2023-05-08T13:13:27.620Z,102364.69
2023-05-08T13:15:55.488Z,102362.31
2023-05-08T13:18:25.529Z,102349.63
2023-05-08T13:20:52.284Z,102345.94
2023-05-08T13:23:19.167Z,102346.97
2023-05-08T13:25:47.453Z,102344.34
2023-05-08T13:28:17.260Z,102338.09
2023-05-08T13:30:44.497Z,102336.69
2023-05-08T13:33:11.157Z,102304.97
2023-05-08T13:35:37.921Z,102338.03
2023-05-08T13:38:04.536Z,102324.72
2023-05-08T13:40:31.411Z,102324.84
2023-05-08T13:42:59.087Z,102321.72
2023-05-08T13:45:28.221Z,102314.22
2023-05-08T13:47:55.138Z,102298.28
2023-05-08T13:50:22.467Z,102313.84
2023-05-08T13:52:52.307Z,102304.44
2023-05-08T13:55:22.876Z,102302.00
2023-05-08T13:57:50.025Z,102298.75
2023-05-08T14:00:17.406Z,102295.53
2023-05-08T14:02:48.316Z,102299.25
2023-05-08T14:05:17.362Z,102298.72
2023-05-08T14:07:47.097Z,102298.16
2023-05-08T14:10:14.043Z,102284.41
2023-05-08T14:12:41.238Z,102281.53
2023-05-08T14:15:08.678Z,102294.06
2023-05-08T14:17:35.507Z,102287.16
2023-05-08T14:20:02.363Z,102283.06
2023-05-08T14:22:29.982Z,102288.00
2023-05-08T14:24:56.560Z,102279.63
2023-05-08T14:27:23.340Z,102276.03
2023-05-08T14:29:50.079Z,102257.47
2023-05-08T14:32:16.642Z,102275.19
2023-05-08T14:34:44.286Z,102279.63
2023-05-08T14:37:15.136Z,102277.09
2023-05-08T14:39:41.736Z,102266.19
2023-05-08T14:44:38.127Z,102270.25
2023-05-08T14:47:05.837Z,102262.56
2023-05-08T14:52:02.563Z,102263.81
2023-05-08T14:54:29.274Z,102263.38
2023-05-08T14:56:55.988Z,102257.78
2023-05-08T14:59:22.662Z,102263.53
2023-05-08T15:01:49.319Z,102253.03
2023-05-08T15:04:17.692Z,102263.44
2023-05-08T15:06:45.819Z,102254.69
2023-05-08T15:09:12.536Z,102254.38
2023-05-08T15:11:39.438Z,102256.19
2023-05-08T15:14:06.205Z,102255.91
2023-05-08T15:16:32.963Z,102254.69
2023-05-08T15:18:59.671Z,102244.94
2023-05-08T15:21:26.873Z,102243.03
2023-05-08T15:23:55.440Z,102234.72
2023-05-08T15:26:22.734Z,102226.00
2023-05-08T15:28:49.555Z,102230.66
2023-05-08T15:31:16.444Z,102227.19
2023-05-08T15:33:45.079Z,102220.97
2023-05-08T15:36:15.547Z,102214.63
2023-05-08T15:38:46.116Z,102225.97
2023-05-08T15:41:15.448Z,102218.56
2023-05-08T15:43:45.432Z,102209.97
2023-05-08T15:46:12.309Z,102207.22
2023-05-08T15:48:40.096Z,102206.84
2023-05-08T15:51:07.166Z,102210.66
2023-05-08T15:53:34.782Z,102213.78
2023-05-08T15:56:01.392Z,102208.88
2023-05-08T15:58:28.076Z,102205.19
2023-05-08T16:00:54.779Z,102209.47
2023-05-08T16:03:21.709Z,102202.78
2023-05-08T16:05:48.535Z,102198.34
2023-05-08T16:08:16.408Z,102204.59
2023-05-08T16:10:45.349Z,102206.13
2023-05-08T16:13:12.046Z,102204.59
2023-05-08T16:15:38.856Z,102203.50
2023-05-08T16:18:06.279Z,102193.34
2023-05-08T16:20:34.322Z,102198.72
2023-05-08T16:23:02.723Z,102204.94
2023-05-08T16:25:29.432Z,102187.25
2023-05-08T16:27:56.328Z,102214.88
2023-05-08T16:30:22.994Z,102216.16
2023-05-08T16:32:49.605Z,102210.91
2023-05-08T16:35:16.554Z,102206.22
2023-05-08T16:37:45.360Z,102207.19
2023-05-08T16:40:12.341Z,102200.84
2023-05-08T16:42:39.026Z,102195.69
2023-05-08T16:45:06.760Z,102189.03
2023-05-08T16:47:34.296Z,102187.31
2023-05-08T16:50:01.220Z,102191.63
2023-05-08T16:52:28.551Z,102195.66
2023-05-08T16:54:55.225Z,102201.88
2023-05-08T16:57:21.980Z,102194.72
2023-05-08T16:59:48.578Z,102193.59
2023-05-08T17:02:19.090Z,102197.22
2023-05-08T17:04:47.505Z,102193.44
2023-05-08T17:07:15.947Z,102182.00
2023-05-08T17:09:49.213Z,102193.97
2023-05-08T17:12:15.939Z,102193.25
2023-05-08T17:14:42.755Z,102200.25
2023-05-08T17:17:11.325Z,102193.88
2023-05-08T17:19:37.957Z,102195.16
2023-05-08T17:22:04.802Z,102183.91
2023-05-08T17:24:32.434Z,102189.09
2023-05-08T17:26:59.466Z,102197.84
2023-05-08T17:29:26.167Z,102195.03
2023-05-08T17:31:53.869Z,102184.78
2023-05-08T17:34:22.713Z,102201.69
2023-05-08T17:36:49.633Z,102199.63
2023-05-08T17:39:19.785Z,102140.16
2023-05-08T17:41:46.936Z,102196.78
2023-05-08T17:44:13.635Z,102198.00
2023-05-08T17:46:40.340Z,102173.66
2023-05-08T17:49:08.155Z,102193.06
2023-05-08T17:51:34.866Z,102184.69
2023-05-08T17:54:01.540Z,102201.59
2023-05-08T17:56:29.019Z,102202.78
2023-05-08T17:58:57.133Z,102196.00
2023-05-08T18:01:24.851Z,102198.50
2023-05-08T18:03:53.541Z,102198.41
2023-05-08T18:06:20.436Z,102203.53
2023-05-08T18:08:47.771Z,102199.00
2023-05-08T18:11:24.477Z,102199.47
2023-05-08T18:13:53.246Z,102199.56
2023-05-08T18:16:21.208Z,102198.53
2023-05-08T18:18:49.575Z,102199.63
2023-05-08T18:21:16.210Z,102200.91
2023-05-08T18:23:45.793Z,102191.03
2023-05-08T18:26:16.335Z,102200.47
2023-05-08T18:28:43.903Z,102205.09
2023-05-08T18:31:11.754Z,102197.09
2023-05-08T18:33:38.440Z,102200.63
2023-05-08T18:36:07.018Z,102203.13
2023-05-08T18:38:34.584Z,102198.25
2023-05-08T18:41:02.769Z,102203.66
2023-05-08T18:43:29.422Z,102199.81
2023-05-08T18:45:56.183Z,102208.13
2023-05-08T18:48:22.835Z,102201.53
2023-05-08T18:50:49.406Z,102213.38
2023-05-08T18:53:16.087Z,102177.88
2023-05-08T18:55:42.755Z,102214.19
2023-05-08T18:58:09.574Z,102214.28
2023-05-08T19:00:36.471Z,102205.88
2023-05-08T19:03:03.384Z,102219.22
2023-05-08T19:05:30.078Z,102218.13
2023-05-08T19:07:56.676Z,102219.44
2023-05-08T19:10:23.404Z,102221.25
2023-05-08T19:12:50.809Z,102184.03
2023-05-08T19:15:17.625Z,102217.56
2023-05-08T19:17:45.342Z,102231.28
2023-05-08T19:20:13.103Z,102220.25
2023-05-08T19:22:40.058Z,102226.81
2023-05-08T19:25:07.022Z,102215.94
2023-05-08T19:27:33.674Z,102233.38
2023-05-08T19:30:00.303Z,102229.75
2023-05-08T19:32:27.720Z,102237.97
2023-05-08T19:34:58.048Z,102233.25
2023-05-08T19:37:25.149Z,102235.41
2023-05-08T19:39:51.893Z,102232.13
2023-05-08T19:42:18.480Z,102235.75
2023-05-08T19:44:45.244Z,102226.69
2023-05-08T19:47:15.232Z,102230.88
2023-05-08T19:49:41.832Z,102234.28
2023-05-08T19:52:08.626Z,102238.94
2023-05-08T19:54:35.340Z,102235.50
2023-05-08T19:57:02.139Z,102224.75
2023-05-08T19:59:28.835Z,102200.81
2023-05-08T20:01:55.588Z,102232.09
2023-05-08T20:04:22.318Z,102228.56
2023-05-08T20:06:48.929Z,102226.38
2023-05-08T20:09:15.648Z,102200.44
2023-05-08T20:11:42.304Z,102239.19
2023-05-08T20:14:08.905Z,102236.19
2023-05-08T20:16:35.711Z,102239.59
2023-05-08T20:19:02.290Z,102235.41
2023-05-08T20:21:32.475Z,102199.28
2023-05-08T20:24:02.429Z,102229.72
2023-05-08T20:26:29.615Z,102220.09
2023-05-08T20:28:56.978Z,102232.13
2023-05-08T20:31:25.780Z,102224.16
2023-05-08T20:33:52.644Z,102236.03
2023-05-08T20:36:19.500Z,102194.06
2023-05-08T20:38:48.252Z,102238.03
2023-05-08T20:41:15.218Z,102243.13
2023-05-08T20:43:41.929Z,102241.53
2023-05-08T20:46:08.685Z,102235.59
2023-05-08T20:48:36.741Z,102244.50
2023-05-08T20:51:03.389Z,102234.63
2023-05-08T20:53:30.666Z,102241.72
2023-05-08T20:56:01.790Z,102226.56
2023-05-08T20:58:28.548Z,102238.25
2023-05-08T21:00:55.419Z,102251.97
2023-05-08T21:03:22.559Z,102245.75
2023-05-08T21:05:49.387Z,102238.84
2023-05-08T21:08:16.123Z,102237.69
2023-05-08T21:10:42.845Z,102237.00
2023-05-08T21:13:09.914Z,102238.38
2023-05-08T21:15:36.625Z,102239.22
2023-05-08T21:18:03.358Z,102235.66
2023-05-08T21:20:32.523Z,102236.69
2023-05-08T21:22:59.144Z,102244.63
2023-05-08T21:25:25.908Z,102235.50
2023-05-08T21:27:55.178Z,102237.34
2023-05-08T21:30:22.022Z,102235.00
2023-05-08T21:32:48.725Z,102227.91
2023-05-08T21:35:15.895Z,102230.44
2023-05-08T21:37:43.059Z,102225.00
2023-05-08T21:40:10.328Z,102223.00
2023-05-08T21:42:39.286Z,102223.69
2023-05-08T21:45:06.391Z,102222.84
2023-05-08T21:47:33.082Z,102226.50
2023-05-08T21:49:59.711Z,102216.72
2023-05-08T21:52:26.643Z,102186.47
2023-05-08T21:54:53.224Z,102204.22
2023-05-08T21:57:19.900Z,102212.31
2023-05-08T21:59:46.832Z,102212.50
2023-05-08T22:02:15.798Z,102206.75
2023-05-08T22:04:43.170Z,102203.50
2023-05-08T22:07:09.817Z,102203.16
2023-05-08T22:09:36.477Z,102192.88
2023-05-08T22:12:03.085Z,102201.81
2023-05-08T22:14:30.783Z,102196.75
2023-05-08T22:16:57.365Z,102194.59
2023-05-08T22:19:23.981Z,102193.56
2023-05-08T22:21:50.572Z,102194.75
2023-05-08T22:24:19.085Z,102183.06
2023-05-08T22:26:46.036Z,102190.88
2023-05-08T22:29:12.599Z,102191.19
2023-05-08T22:31:39.310Z,102179.88
2023-05-08T22:34:06.058Z,102185.09
2023-05-08T22:36:32.724Z,102191.00
2023-05-08T22:39:00.977Z,102179.50
2023-05-08T22:41:30.167Z,102186.63
2023-05-08T22:43:56.903Z,102175.97
2023-05-08T22:46:24.423Z,102173.78
2023-05-08T22:48:52.796Z,102174.97
2023-05-08T22:51:19.492Z,102162.63
2023-05-08T22:53:46.466Z,102170.06
2023-05-08T22:56:13.538Z,102164.97
2023-05-08T22:58:40.165Z,102162.28
2023-05-08T23:01:06.848Z,102152.13
2023-05-08T23:03:33.557Z,102152.81
2023-05-08T23:06:00.120Z,102148.44
2023-05-08T23:08:26.687Z,102125.63
2023-05-08T23:10:53.344Z,102149.78
2023-05-08T23:13:20.001Z,102134.72
2023-05-08T23:15:46.627Z,102148.06
2023-05-08T23:18:13.663Z,102140.34
2023-05-08T23:20:40.284Z,102145.75
2023-05-08T23:23:07.383Z,102153.66
2023-05-08T23:25:34.001Z,102135.25
2023-05-08T23:28:00.647Z,102138.13
2023-05-08T23:30:27.335Z,102130.69
2023-05-08T23:32:54.038Z,102128.34
2023-05-08T23:35:20.787Z,102129.31
2023-05-08T23:37:47.410Z,102132.53
2023-05-08T23:40:17.495Z,102130.00
2023-05-08T23:42:45.083Z,102134.72
2023-05-08T23:45:12.215Z,102145.38
2023-05-08T23:47:39.284Z,102142.84
2023-05-08T23:50:08.513Z,102141.84
2023-05-08T23:52:35.237Z,102146.38
2023-05-08T23:55:03.002Z,102145.69
2023-05-08T23:57:29.587Z,102149.56
2023-05-08T23:59:56.191Z,102148.88
